Time;durP1;ratioP1;P1;durP2;ratioP2;P2;SDS_P1;SDS_P2;PMS_P1;PMS_P2;Temp;Humidity;BMP_temperature;BMP_pressure;BME280_temperature;BME280_humidity;BME280_pressure;Samples;Min_cycle;Max_cycle;Signal;HPM_P1;HPM_P2
2021/07/06 13:18:37;;;;;;;2.70;1.70;;;22.70;99.90;;;;;;5988575;23;1214291;-77
2021/07/06 13:21:05;;;;;;;1.37;1.00;;;22.70;99.90;;;;;;4934064;29;20467;-77
2021/07/06 13:23:33;;;;;;;1.40;1.00;;;22.80;99.90;;;;;;4937088;29;20462;-76
2021/07/06 13:26:01;;;;;;;1.77;0.90;;;23.10;99.90;;;;;;5050567;23;21675;-78
2021/07/06 13:28:28;;;;;;;1.00;0.77;;;23.00;99.90;;;;;;4984089;28;20457;-78
2021/07/06 13:30:56;;;;;;;1.10;1.00;;;22.80;99.90;;;;;;4989293;28;20467;-75
2021/07/06 13:33:23;;;;;;;2.53;1.20;;;22.80;99.90;;;;;;4967908;28;20487;-74
2021/07/06 13:35:53;;;;;;;1.20;0.93;;;22.80;99.90;;;;;;4987474;28;20464;-75
2021/07/06 13:38:22;;;;;;;1.07;0.77;;;22.80;99.90;;;;;;4986126;28;20460;-76
2021/07/06 13:40:51;;;;;;;1.00;0.70;;;22.70;99.90;;;;;;4987812;28;20456;-74
2021/07/06 13:43:17;;;;;;;1.50;0.93;;;22.90;99.90;;;;;;4982856;28;20904;-74
2021/07/06 13:45:46;;;;;;;1.13;0.90;;;22.90;99.90;;;;;;4977584;28;20468;-76
2021/07/06 13:48:13;;;;;;;1.17;0.80;;;22.90;99.90;;;;;;4985939;28;20983;-74
2021/07/06 13:50:40;;;;;;;1.30;1.07;;;22.80;99.90;;;;;;4976219;28;20723;-72
2021/07/06 13:53:09;;;;;;;1.60;0.80;;;22.90;99.90;;;;;;4987887;28;20456;-74
2021/07/06 13:55:36;;;;;;;1.30;0.90;;;23.00;99.90;;;;;;4988467;28;20603;-73
2021/07/06 13:58:05;;;;;;;1.30;1.00;;;23.00;99.90;;;;;;4989294;28;20519;-73
2021/07/06 14:00:32;;;;;;;1.83;0.87;;;23.00;99.90;;;;;;4975897;28;20476;-74
2021/07/06 14:03:00;;;;;;;1.10;0.80;;;23.00;99.90;;;;;;4982781;28;20464;-74
2021/07/06 14:05:28;;;;;;;1.37;0.90;;;23.10;99.90;;;;;;4986597;28;20460;-72
2021/07/06 14:07:55;;;;;;;2.30;0.70;;;23.10;99.90;;;;;;4988737;28;20445;-73
2021/07/06 14:10:25;;;;;;;1.40;0.90;;;23.10;99.90;;;;;;4987539;28;20472;-72
2021/07/06 14:12:52;;;;;;;1.00;0.80;;;23.10;99.90;;;;;;4984392;28;20578;-72
2021/07/06 14:15:19;;;;;;;4.90;1.47;;;23.10;99.90;;;;;;4987773;28;20468;-72
2021/07/06 14:17:46;;;;;;;1.30;1.00;;;23.10;99.90;;;;;;4986975;28;20922;-72
2021/07/06 14:20:15;;;;;;;1.40;0.93;;;23.10;99.90;;;;;;4988732;28;20468;-72
2021/07/06 14:22:42;;;;;;;1.10;1.00;;;23.10;99.90;;;;;;4987415;28;20468;-71
2021/07/06 14:25:11;;;;;;;1.13;0.80;;;23.10;99.90;;;;;;4988707;28;20453;-70
2021/07/06 14:27:40;;;;;;;1.40;1.00;;;23.10;99.90;;;;;;4977512;28;20492;-73
2021/07/06 14:30:09;;;;;;;3.43;1.00;;;23.20;99.90;;;;;;4977122;28;20569;-73
2021/07/06 14:32:38;;;;;;;1.30;0.90;;;23.20;99.90;;;;;;4983683;28;20456;-74
2021/07/06 14:35:06;;;;;;;1.60;0.80;;;23.20;99.90;;;;;;4983752;28;20472;-73
2021/07/06 14:37:33;;;;;;;3.53;0.90;;;23.20;99.90;;;;;;4983493;28;20487;-71
2021/07/06 14:39:59;;;;;;;1.50;0.87;;;23.20;99.90;;;;;;4989008;28;20465;-74
2021/07/06 14:42:26;;;;;;;1.10;0.80;;;23.20;99.90;;;;;;4984531;28;21065;-74
2021/07/06 14:44:54;;;;;;;4.17;1.07;;;23.10;99.90;;;;;;4988899;28;20925;-73
2021/07/06 14:47:21;;;;;;;2.03;0.90;;;23.40;99.90;;;;;;4987273;28;20834;-73
2021/07/06 14:49:47;;;;;;;1.53;0.90;;;23.30;99.90;;;;;;4987295;28;20456;-74
2021/07/06 14:52:15;;;;;;;3.53;0.70;;;23.30;99.90;;;;;;4991182;28;20456;-73
2021/07/06 14:54:42;;;;;;;3.53;1.17;;;23.30;99.90;;;;;;4993105;28;20492;-72
2021/07/06 14:57:09;;;;;;;2.10;1.07;;;23.30;99.90;;;;;;4992669;28;20480;-73
2021/07/06 14:59:35;;;;;;;1.97;1.17;;;23.20;99.90;;;;;;4990446;28;20471;-72
2021/07/06 15:02:04;;;;;;;1.30;0.80;;;23.30;99.90;;;;;;4988376;28;20448;-72
2021/07/06 15:04:31;;;;;;;2.03;1.37;;;23.30;99.90;;;;;;4992915;28;20448;-74
2021/07/06 15:06:57;;;;;;;2.80;1.10;;;23.30;99.90;;;;;;4991663;28;20546;-73
2021/07/06 15:09:24;;;;;;;1.47;0.80;;;23.40;99.90;;;;;;4992164;28;20475;-73
2021/07/06 15:11:51;;;;;;;1.77;0.73;;;23.30;99.90;;;;;;4991053;28;20441;-73
2021/07/06 15:14:19;;;;;;;1.63;1.20;;;23.30;99.90;;;;;;4990103;28;20467;-75
2021/07/06 15:16:46;;;;;;;2.67;1.00;;;23.30;99.90;;;;;;4991716;28;20476;-72
2021/07/06 15:19:14;;;;;;;2.60;0.90;;;23.30;99.90;;;;;;4978437;28;20932;-72
2021/07/06 15:21:41;;;;;;;1.50;0.90;;;23.30;99.90;;;;;;4972894;28;20449;-73
2021/07/06 15:24:07;;;;;;;2.50;0.80;;;23.30;99.90;;;;;;4987223;28;20452;-72
2021/07/06 15:26:34;;;;;;;1.13;0.83;;;23.40;99.90;;;;;;4991219;28;20483;-72
2021/07/06 15:29:01;;;;;;;1.57;0.90;;;23.40;99.90;;;;;;4980668;28;20911;-75
2021/07/06 15:31:28;;;;;;;2.43;1.00;;;23.40;99.90;;;;;;4990521;28;20479;-73
2021/07/06 15:33:54;;;;;;;1.30;0.80;;;23.40;99.90;;;;;;4988505;28;20452;-73
2021/07/06 15:36:22;;;;;;;2.30;1.03;;;23.50;99.90;;;;;;4975089;28;20454;-72
2021/07/06 15:38:49;;;;;;;1.80;0.80;;;23.50;99.90;;;;;;4984256;28;20476;-72
2021/07/06 15:41:16;;;;;;;1.87;1.10;;;23.50;99.90;;;;;;4979585;28;20814;-73
2021/07/06 15:43:42;;;;;;;1.60;0.80;;;23.50;99.90;;;;;;4975640;28;20456;-73
2021/07/06 15:46:09;;;;;;;1.00;0.70;;;23.20;99.90;;;;;;4975154;28;20453;-72
2021/07/06 15:48:36;;;;;;;1.23;1.00;;;23.50;99.90;;;;;;4974039;28;20454;-71
2021/07/06 15:51:05;;;;;;;1.50;1.00;;;23.60;99.90;;;;;;4988646;28;20784;-72
2021/07/06 15:53:33;;;;;;;1.70;0.90;;;23.40;99.90;;;;;;4985131;28;20531;-73
2021/07/06 15:56:00;;;;;;;4.50;1.20;;;23.40;99.90;;;;;;4976992;28;20453;-75
2021/07/06 15:58:26;;;;;;;3.83;0.90;;;23.50;99.90;;;;;;4989192;28;20494;-72
2021/07/06 16:00:53;;;;;;;5.83;1.10;;;23.50;99.90;;;;;;4986882;28;20454;-72
2021/07/06 16:03:20;;;;;;;1.53;0.93;;;23.50;99.90;;;;;;4995605;28;20457;-73
2021/07/06 16:05:46;;;;;;;1.87;0.90;;;23.50;99.90;;;;;;4978029;28;20472;-72
2021/07/06 16:08:15;;;;;;;1.20;0.80;;;23.50;99.90;;;;;;4991707;28;20449;-73
2021/07/06 16:10:43;;;;;;;3.00;1.00;;;23.50;99.90;;;;;;4991202;28;20457;-72
2021/07/06 16:13:10;;;;;;;1.40;0.80;;;23.50;99.90;;;;;;4983283;28;20452;-73
2021/07/06 16:15:37;;;;;;;2.20;1.00;;;23.50;99.90;;;;;;4983623;28;20484;-72
2021/07/06 16:18:07;;;;;;;6.63;1.20;;;23.50;99.90;;;;;;4992550;28;20488;-73
2021/07/06 16:20:35;;;;;;;3.50;1.10;;;23.50;99.90;;;;;;4981238;28;20452;-73
2021/07/06 16:23:01;;;;;;;2.00;1.00;;;23.60;99.90;;;;;;4993878;28;20924;-73
2021/07/06 16:25:28;;;;;;;2.63;1.03;;;23.50;99.90;;;;;;4993362;28;20835;-73
2021/07/06 16:27:56;;;;;;;3.43;0.90;;;23.50;99.90;;;;;;4992510;28;20963;-74
2021/07/06 16:30:24;;;;;;;4.30;1.00;;;23.40;99.90;;;;;;4994263;28;20471;-73
2021/07/06 16:32:51;;;;;;;3.43;1.20;;;23.50;99.90;;;;;;4992314;28;20801;-74
2021/07/06 16:35:19;;;;;;;2.97;1.07;;;23.60;99.90;;;;;;4994649;28;20908;-74
2021/07/06 16:37:47;;;;;;;1.73;1.17;;;23.60;99.90;;;;;;4977094;28;20481;-74
2021/07/06 16:40:15;;;;;;;3.03;1.10;;;23.60;99.90;;;;;;4985160;28;20452;-74
2021/07/06 16:42:43;;;;;;;3.40;1.10;;;23.70;99.90;;;;;;4975147;28;20446;-73
2021/07/06 16:45:12;;;;;;;4.40;1.30;;;23.60;99.90;;;;;;4974286;28;20446;-74
2021/07/06 16:47:39;;;;;;;2.10;1.40;;;23.70;99.90;;;;;;4975654;28;20449;-74
2021/07/06 16:50:07;;;;;;;1.10;0.90;;;23.60;99.90;;;;;;4984234;28;20456;-73
2021/07/06 17:58:40;;;;;;;2.03;1.20;;;23.50;99.90;;;;;;4820731;29;20476;-73
2021/07/06 18:01:08;;;;;;;1.93;1.00;;;23.20;99.90;;;;;;4844042;29;20475;-72
2021/07/06 18:03:34;;;;;;;2.43;1.10;;;23.40;99.90;;;;;;4856918;29;20507;-73
2021/07/06 18:06:06;;;;;;;1.00;0.80;;;23.50;99.90;;;;;;4885509;29;20932;-73
2021/07/06 18:08:34;;;;;;;1.63;1.00;;;23.50;99.90;;;;;;4892129;29;20483;-72
2021/07/06 18:11:02;;;;;;;2.90;1.37;;;23.50;99.90;;;;;;4968477;28;20464;-74
2021/07/06 18:13:30;;;;;;;1.20;0.80;;;23.50;99.90;;;;;;4993203;28;20913;-72
2021/07/06 18:15:58;;;;;;;1.93;0.90;;;23.50;99.90;;;;;;4992262;28;20458;-74
2021/07/06 18:18:25;;;;;;;3.10;1.10;;;23.40;99.90;;;;;;4990602;28;20480;-74
2021/07/06 18:20:53;;;;;;;1.80;1.10;;;23.40;99.90;;;;;;4992721;28;20940;-71
2021/07/06 18:23:23;;;;;;;2.80;1.00;;;23.40;99.90;;;;;;4990366;28;20441;-73
2021/07/06 18:25:50;;;;;;;2.80;1.30;;;23.40;99.90;;;;;;4992841;28;20448;-75
2021/07/06 18:28:17;;;;;;;2.03;0.90;;;23.50;99.90;;;;;;4991708;28;20456;-74
2021/07/06 18:30:43;;;;;;;1.37;0.90;;;23.40;99.90;;;;;;4987133;28;20956;-73
2021/07/06 18:33:11;;;;;;;2.17;1.00;;;23.20;99.90;;;;;;4992701;28;20449;-73
2021/07/06 18:35:38;;;;;;;3.63;1.30;;;23.40;99.90;;;;;;4992475;28;20448;-73
2021/07/06 18:38:04;;;;;;;2.20;1.10;;;23.40;99.90;;;;;;4992026;28;20547;-72
2021/07/06 18:40:35;;;;;;;2.20;1.17;;;23.40;99.90;;;;;;4992738;28;20444;-73
2021/07/06 18:43:02;;;;;;;1.60;1.03;;;23.40;99.90;;;;;;4993107;28;20869;-73
2021/07/06 18:45:29;;;;;;;1.90;1.10;;;23.30;99.90;;;;;;4992830;28;20486;-73
2021/07/06 18:47:55;;;;;;;5.07;1.40;;;23.30;99.90;;;;;;4990637;28;20958;-73
2021/07/06 18:50:22;;;;;;;1.20;0.90;;;23.30;99.90;;;;;;4989514;28;20457;-73
2021/07/06 18:52:50;;;;;;;2.43;1.10;;;23.30;99.90;;;;;;4988433;28;20464;-73
2021/07/06 18:55:17;;;;;;;2.37;1.20;;;23.30;99.90;;;;;;4982709;28;20557;-73
2021/07/06 18:57:45;;;;;;;1.60;1.03;;;23.20;99.90;;;;;;4972245;28;20477;-72
2021/07/06 19:00:13;;;;;;;1.50;0.90;;;23.30;99.90;;;;;;4984088;28;20465;-72
2021/07/06 19:02:41;;;;;;;4.70;1.70;;;23.30;99.90;;;;;;4990652;28;20480;-73
2021/07/06 19:05:10;;;;;;;1.27;0.90;;;23.20;99.90;;;;;;4989461;28;21045;-73
2021/07/06 19:07:37;;;;;;;1.53;0.97;;;23.30;99.90;;;;;;4990785;28;20452;-72
2021/07/06 19:10:05;;;;;;;2.63;1.20;;;23.20;99.90;;;;;;4988617;28;20457;-73
2021/07/06 19:12:32;;;;;;;1.60;1.07;;;23.20;99.90;;;;;;4990343;28;20452;-73
2021/07/06 19:15:00;;;;;;;2.10;1.00;;;23.30;99.90;;;;;;4990518;28;20813;-73
2021/07/06 19:17:27;;;;;;;1.93;1.00;;;23.20;99.90;;;;;;4984344;28;20473;-73
2021/07/06 19:19:55;;;;;;;1.77;1.20;;;23.30;99.90;;;;;;4979204;28;20437;-72
2021/07/06 19:22:21;;;;;;;1.50;1.33;;;23.20;99.90;;;;;;4987702;28;20952;-73
2021/07/06 19:24:47;;;;;;;2.53;1.10;;;23.20;99.90;;;;;;4976534;28;20771;-73
2021/07/06 19:27:15;;;;;;;2.23;1.30;;;23.20;99.90;;;;;;4979155;28;21122;-73
2021/07/06 19:32:30;;;;;;;1.97;1.13;;;23.00;99.90;;;;;;4994132;28;20880;-74
2021/07/06 19:34:58;;;;;;;1.53;0.97;;;23.10;99.90;;;;;;4993293;28;20448;-74
2021/07/06 19:37:26;;;;;;;1.60;1.00;;;23.10;99.90;;;;;;4994869;28;20454;-74
2021/07/06 19:39:53;;;;;;;1.87;1.13;;;23.30;99.90;;;;;;4991597;28;20452;-74
2021/07/06 19:42:20;;;;;;;1.50;0.90;;;23.10;99.90;;;;;;4991623;28;20788;-74
2021/07/06 19:44:47;;;;;;;1.83;1.10;;;23.20;99.90;;;;;;4985936;28;20957;-73
2021/07/06 19:47:14;;;;;;;2.07;1.20;;;23.00;99.90;;;;;;4975990;28;20450;-72
2021/07/06 19:49:43;;;;;;;1.60;0.90;;;23.10;99.90;;;;;;4987168;28;20460;-73
2021/07/06 19:52:10;;;;;;;1.80;1.33;;;23.00;99.90;;;;;;4986763;28;20454;-72
2021/07/06 19:54:38;;;;;;;1.50;1.10;;;23.10;99.90;;;;;;4983730;28;20815;-73
2021/07/06 19:57:06;;;;;;;1.97;1.10;;;23.00;99.90;;;;;;4986011;28;20473;-73
2021/07/06 19:59:33;;;;;;;2.03;1.30;;;23.00;99.90;;;;;;4975712;28;20481;-73
2021/07/06 20:02:00;;;;;;;3.40;1.70;;;23.00;99.90;;;;;;4977238;28;20450;-73
2021/07/06 20:04:27;;;;;;;1.40;1.17;;;23.10;99.90;;;;;;4984197;28;20777;-73
2021/07/06 20:06:56;;;;;;;2.33;1.10;;;23.00;99.90;;;;;;4993909;28;20769;-74
2021/07/06 20:09:23;;;;;;;2.50;1.20;;;23.00;99.90;;;;;;4981837;28;20986;-73
2021/07/06 20:11:49;;;;;;;2.40;1.00;;;23.00;99.90;;;;;;4991275;28;20452;-73
2021/07/06 20:14:16;;;;;;;1.53;1.23;;;23.00;99.90;;;;;;4992567;28;20457;-73
2021/07/06 20:16:43;;;;;;;1.33;0.90;;;23.00;99.90;;;;;;4992610;28;20459;-73
2021/07/06 20:19:09;;;;;;;2.13;1.20;;;22.90;99.90;;;;;;4990895;28;20550;-73
2021/07/06 20:21:36;;;;;;;1.53;0.73;;;22.90;99.90;;;;;;4993159;28;20452;-73
2021/07/06 20:24:04;;;;;;;1.57;0.97;;;23.00;99.90;;;;;;4993404;28;20467;-73
2021/07/06 20:26:31;;;;;;;2.13;1.03;;;22.90;99.90;;;;;;4987573;28;20488;-71
2021/07/06 20:28:58;;;;;;;2.00;0.83;;;22.90;99.90;;;;;;4992301;28;20457;-74
2021/07/06 20:31:26;;;;;;;1.40;1.00;;;23.10;99.90;;;;;;4992212;28;20452;-73
2021/07/06 20:33:53;;;;;;;1.23;0.90;;;22.90;99.90;;;;;;4988135;28;20453;-73
2021/07/06 20:36:20;;;;;;;1.00;0.90;;;22.70;99.90;;;;;;4983090;28;20452;-72
2021/07/06 20:38:47;;;;;;;1.20;0.90;;;22.90;99.90;;;;;;4989428;28;20479;-74
2021/07/06 20:41:15;;;;;;;1.40;0.97;;;23.00;99.90;;;;;;4992407;28;20795;-74
2021/07/06 20:43:42;;;;;;;2.90;2.40;;;22.80;99.90;;;;;;4991461;28;20457;-74
2021/07/06 20:46:09;;;;;;;3.70;1.20;;;22.80;99.90;;;;;;4973735;28;20449;-73
2021/07/06 20:48:36;;;;;;;2.83;1.20;;;22.80;99.90;;;;;;4989005;28;20453;-73
2021/07/06 20:51:04;;;;;;;1.70;1.10;;;22.80;99.90;;;;;;4986330;28;20904;-72
2021/07/06 20:53:30;;;;;;;1.63;1.07;;;22.70;99.90;;;;;;4992252;28;20461;-73
2021/07/06 20:55:57;;;;;;;1.20;0.90;;;22.70;99.90;;;;;;4993511;28;20924;-73
2021/07/06 20:58:26;;;;;;;1.93;1.00;;;22.70;99.90;;;;;;4992084;28;20476;-73
2021/07/06 21:00:52;;;;;;;1.23;0.90;;;22.70;99.90;;;;;;4986006;28;20813;-73
2021/07/06 21:03:19;;;;;;;1.60;1.37;;;22.70;99.90;;;;;;4983395;28;20464;-74
2021/07/06 21:05:46;;;;;;;1.30;0.87;;;22.70;99.90;;;;;;4982595;28;20453;-72
2021/07/06 21:08:12;;;;;;;1.67;1.00;;;22.60;99.90;;;;;;4992412;28;20802;-72
2021/07/06 21:10:39;;;;;;;1.30;0.90;;;22.60;99.90;;;;;;4980752;28;20445;-73
2021/07/06 21:13:08;;;;;;;1.60;1.00;;;22.40;99.90;;;;;;4987082;28;20940;-74
2021/07/06 21:15:37;;;;;;;2.13;1.00;;;22.60;99.90;;;;;;4991700;28;20452;-72
2021/07/06 21:18:04;;;;;;;1.33;0.90;;;22.60;99.90;;;;;;4992895;28;20609;-73
2021/07/06 21:20:31;;;;;;;1.33;1.00;;;22.60;99.90;;;;;;4990252;28;20455;-72
2021/07/06 21:22:58;;;;;;;1.53;1.23;;;22.60;99.90;;;;;;4983523;28;20784;-72
2021/07/06 21:25:24;;;;;;;2.60;1.10;;;22.60;99.90;;;;;;4973660;28;20484;-73
2021/07/06 21:27:51;;;;;;;1.83;0.97;;;22.50;99.90;;;;;;4990342;28;20768;-73
2021/07/06 21:30:18;;;;;;;1.20;1.10;;;22.50;99.90;;;;;;4985051;28;20944;-71
2021/07/06 21:32:46;;;;;;;1.90;1.00;;;22.50;99.90;;;;;;4988067;28;20208;-72
2021/07/06 21:35:13;;;;;;;1.47;0.83;;;22.30;99.90;;;;;;4977752;28;20768;-73
2021/07/06 21:37:40;;;;;;;1.83;1.00;;;22.50;99.90;;;;;;4988054;28;20452;-73
2021/07/06 21:40:08;;;;;;;1.10;1.00;;;22.50;99.90;;;;;;4990776;28;20491;-72
2021/07/06 21:42:36;;;;;;;1.67;1.17;;;22.40;99.90;;;;;;4991248;28;20460;-73
2021/07/06 21:45:05;;;;;;;1.47;0.93;;;22.40;99.90;;;;;;4992463;28;20527;-73
2021/07/06 21:47:32;;;;;;;1.60;1.10;;;22.40;99.90;;;;;;4986773;28;20457;-73
2021/07/06 21:50:00;;;;;;;1.53;1.00;;;22.40;99.90;;;;;;4973238;28;20830;-73
2021/07/06 21:52:26;;;;;;;1.70;1.00;;;22.40;99.90;;;;;;4974301;28;20476;-72
2021/07/06 21:54:53;;;;;;;1.07;0.80;;;22.40;99.90;;;;;;4984122;28;20814;-73
2021/07/06 21:57:20;;;;;;;2.67;1.00;;;22.30;99.90;;;;;;4984533;28;20465;-73
2021/07/06 21:59:46;;;;;;;1.97;1.13;;;22.30;99.90;;;;;;4977844;28;20992;-72
2021/07/06 22:02:13;;;;;;;1.60;0.90;;;22.30;99.90;;;;;;4983143;28;20457;-72
2021/07/06 22:04:40;;;;;;;1.57;1.17;;;22.30;99.90;;;;;;4986898;28;20222;-72
2021/07/06 22:07:08;;;;;;;2.33;1.30;;;22.30;99.90;;;;;;4986860;28;20468;-71
2021/07/06 22:09:34;;;;;;;3.40;1.40;;;22.30;99.90;;;;;;4979213;28;21028;-71
2021/07/06 22:12:01;;;;;;;1.57;0.93;;;22.30;99.90;;;;;;4981000;28;20522;-72
2021/07/06 22:14:28;;;;;;;1.60;1.13;;;22.20;99.90;;;;;;4978585;28;20456;-71
2021/07/06 22:16:55;;;;;;;1.40;0.97;;;22.30;99.90;;;;;;4984973;28;20963;-71
2021/07/06 22:19:21;;;;;;;1.50;0.90;;;22.20;99.90;;;;;;4979802;28;20484;-71
2021/07/06 22:21:48;;;;;;;1.30;0.85;;;22.20;99.90;;;;;;4984129;28;20748;-72
2021/07/06 22:24:16;;;;;;;3.25;1.20;;;22.30;99.90;;;;;;4981365;28;20749;-71
2021/07/06 22:26:43;;;;;;;1.17;0.90;;;22.20;99.90;;;;;;4976087;28;20240;-72
2021/07/06 22:29:10;;;;;;;1.75;0.90;;;22.20;99.90;;;;;;4988132;28;20539;-72
2021/07/06 22:31:37;;;;;;;2.13;0.90;;;22.00;99.90;;;;;;4984501;28;20248;-72
2021/07/06 22:34:04;;;;;;;2.22;1.20;;;22.20;99.90;;;;;;4986124;28;20465;-71
2021/07/06 22:36:31;;;;;;;2.33;1.73;;;23.10;99.90;;;;;;4982642;28;20221;-71
2021/07/06 22:38:57;;;;;;;1.20;1.10;;;22.10;99.90;;;;;;4988830;28;20845;-71
2021/07/06 22:41:25;;;;;;;2.17;1.25;;;22.10;99.90;;;;;;4990594;28;20548;-72
2021/07/06 22:43:52;;;;;;;1.80;1.30;;;22.10;99.90;;;;;;4978614;28;20210;-72
2021/07/06 22:46:19;;;;;;;2.17;1.13;;;22.00;99.90;;;;;;4991327;28;20528;-72
2021/07/06 22:48:45;;;;;;;1.50;1.10;;;21.90;99.90;;;;;;4979598;28;20822;-72
2021/07/06 22:51:12;;;;;;;1.67;1.57;;;22.00;99.90;;;;;;4992188;28;20563;-71
2021/07/06 22:53:39;;;;;;;1.42;1.23;;;22.00;99.90;;;;;;4988574;28;20464;-71
2021/07/06 22:56:05;;;;;;;2.03;1.08;;;21.90;99.90;;;;;;4980602;28;20209;-71
2021/07/06 22:58:33;;;;;;;3.45;1.10;;;22.70;99.90;;;;;;4983218;28;20209;-71
2021/07/06 23:01:00;;;;;;;1.40;1.00;;;21.90;99.90;;;;;;4992314;28;20259;-71
2021/07/06 23:03:28;;;;;;;1.75;1.10;;;21.90;99.90;;;;;;4988255;28;20291;-71
2021/07/06 23:05:55;;;;;;;1.63;1.07;;;21.90;99.90;;;;;;4994159;28;20261;-71
2021/07/06 23:08:22;;;;;;;1.33;1.02;;;21.90;99.90;;;;;;4985181;28;20472;-71
2021/07/06 23:10:48;;;;;;;1.50;0.90;;;21.80;99.90;;;;;;4985907;28;20210;-71
2021/07/06 23:13:15;;;;;;;1.80;1.08;;;21.80;99.90;;;;;;4986046;28;20448;-71
2021/07/06 23:15:43;;;;;;;1.80;1.10;;;21.80;99.90;;;;;;4994717;28;20217;-71
2021/07/06 23:18:11;;;;;;;1.70;1.05;;;21.80;99.90;;;;;;4985468;28;20217;-71
2021/07/06 23:20:38;;;;;;;1.58;1.23;;;21.80;99.90;;;;;;4975045;28;20721;-71
2021/07/06 23:23:06;;;;;;;1.20;0.97;;;21.80;99.90;;;;;;4976646;28;20643;-71
2021/07/06 23:25:33;;;;;;;2.70;1.00;;;21.70;99.90;;;;;;4990931;28;20468;-72
2021/07/06 23:27:59;;;;;;;1.17;1.05;;;21.70;99.90;;;;;;4988055;28;20255;-71
2021/07/06 23:30:30;;;;;;;1.50;1.02;;;21.70;99.90;;;;;;4990228;28;20205;-71
2021/07/06 23:32:59;;;;;;;1.80;1.30;;;21.70;99.90;;;;;;4990346;28;20649;-71
2021/07/06 23:35:26;;;;;;;2.10;1.23;;;21.70;99.90;;;;;;4980679;28;20732;-71
2021/07/06 23:37:53;;;;;;;2.55;1.10;;;21.70;99.90;;;;;;4984085;28;20219;-72
2021/07/06 23:40:20;;;;;;;1.55;1.23;;;21.70;99.90;;;;;;4983855;28;20276;-72
2021/07/06 23:42:47;;;;;;;1.85;1.05;;;21.60;99.90;;;;;;4995443;28;20232;-71
2021/07/06 23:45:13;;;;;;;1.85;1.40;;;21.60;99.90;;;;;;4992722;28;20213;-72
2021/07/06 23:47:40;;;;;;;1.60;1.30;;;21.60;99.90;;;;;;4989840;28;20277;-72
2021/07/06 23:50:10;;;;;;;1.70;1.15;;;21.60;99.90;;;;;;4985217;28;20201;-72
2021/07/06 23:52:37;;;;;;;2.17;1.13;;;21.60;99.90;;;;;;4992998;28;20713;-72
2021/07/06 23:55:05;;;;;;;1.92;1.48;;;21.60;99.90;;;;;;4990382;28;20563;-74
2021/07/06 23:57:36;;;;;;;1.52;1.02;;;21.60;99.90;;;;;;4995779;28;20205;-72
